Time;durP1;ratioP1;P1;durP2;ratioP2;P2;SDS_P1;SDS_P2;PMS_P1;PMS_P2;Temp;Humidity;BMP_temperature;BMP_pressure;BME280_temperature;BME280_humidity;BME280_pressure;Samples;Min_cycle;Max_cycle;Signal;HPM_P1;HPM_P2
2022/06/14 00:03:00;;;;;;;10.07;4.35;;;;;;;;;;5084407;28;20093;-74
2022/06/14 00:05:26;;;;;;;10.35;4.15;;;;;;;;;;5086327;28;20595;-74
2022/06/14 00:07:52;;;;;;;10.20;3.67;;;;;;;;;;5083196;28;20105;-73
2022/06/14 00:10:18;;;;;;;6.75;3.90;;;;;;;;;;5089079;28;20048;-74
2022/06/14 00:12:45;;;;;;;9.77;4.88;;;;;;;;;;5088892;28;20047;-74
2022/06/14 00:15:11;;;;;;;11.50;4.55;;;;;;;;;;5081554;28;20039;-74
2022/06/14 00:17:39;;;;;;;12.55;4.65;;;;;;;;;;5090075;28;20052;-73
2022/06/14 00:20:05;;;;;;;9.73;5.63;;;;;;;;;;5082892;28;20044;-74
2022/06/14 00:22:33;;;;;;;9.15;4.47;;;;;;;;;;5087350;28;20536;-73
2022/06/14 00:24:59;;;;;;;9.85;4.53;;;;;;;;;;5069507;28;20792;-74
2022/06/14 00:27:25;;;;;;;9.80;4.22;;;;;;;;;;5076203;28;20041;-73
2022/06/14 00:29:51;;;;;;;5.72;4.78;;;;;;;;;;5083303;28;20032;-74
2022/06/14 00:32:18;;;;;;;9.73;4.07;;;;;;;;;;5086517;28;20111;-75
2022/06/14 00:34:44;;;;;;;8.13;4.15;;;;;;;;;;5076135;28;20114;-74
2022/06/14 00:37:14;;;;;;;9.50;4.75;;;;;;;;;;5088103;28;20055;-74
2022/06/14 00:39:40;;;;;;;9.95;4.53;;;;;;;;;;5080007;28;20102;-75
2022/06/14 00:42:06;;;;;;;7.57;3.55;;;;;;;;;;5085499;28;20044;-75
2022/06/14 00:44:32;;;;;;;9.90;4.38;;;;;;;;;;5084606;28;20044;-74
2022/06/14 00:47:04;;;;;;;10.10;3.97;;;;;;;;;;5087711;28;20138;-74
2022/06/14 00:49:47;;;;;;;9.07;3.77;;;;;;;;;;5083517;28;20549;-74
2022/06/14 00:52:24;;;;;;;12.77;4.90;;;;;;;;;;5078515;28;20554;-74
2022/06/14 00:54:54;;;;;;;11.00;4.03;;;;;;;;;;5086284;28;20100;-74
2022/06/14 00:57:23;;;;;;;16.15;4.47;;;;;;;;;;5075873;28;20086;-74
2022/06/14 01:00:13;;;;;;;10.13;3.75;;;;;;;;;;5073072;28;20089;-74
2022/06/14 01:02:41;;;;;;;6.55;4.35;;;;;;;;;;5067316;28;20048;-74
2022/06/14 01:05:10;;;;;;;8.63;3.80;;;;;;;;;;5075037;28;20116;-74
2022/06/14 01:07:42;;;;;;;10.05;4.70;;;;;;;;;;5073141;28;20055;-74
2022/06/14 01:10:18;;;;;;;9.68;3.70;;;;;;;;;;5073780;28;20075;-74
2022/06/14 01:12:46;;;;;;;6.45;3.63;;;;;;;;;;5078565;28;20044;-74
2022/06/14 01:15:20;;;;;;;8.48;3.65;;;;;;;;;;5079279;28;20111;-74
2022/06/14 01:17:51;;;;;;;8.60;4.32;;;;;;;;;;5084308;28;20043;-75
2022/06/14 01:20:19;;;;;;;10.43;4.60;;;;;;;;;;5085284;28;20092;-74
2022/06/14 01:22:46;;;;;;;5.47;3.45;;;;;;;;;;5088723;28;20035;-74
2022/06/14 01:25:12;;;;;;;9.60;4.53;;;;;;;;;;5073339;28;20043;-74
2022/06/14 01:27:39;;;;;;;8.07;4.03;;;;;;;;;;5079555;28;20048;-74
2022/06/14 01:30:12;;;;;;;11.70;4.60;;;;;;;;;;5082964;28;20046;-73
2022/06/14 01:32:45;;;;;;;8.25;4.18;;;;;;;;;;5080551;28;20104;-74
2022/06/14 01:35:13;;;;;;;6.30;3.85;;;;;;;;;;5087359;28;20036;-74
2022/06/14 01:37:40;;;;;;;13.77;4.90;;;;;;;;;;5075345;28;20080;-74
2022/06/14 01:40:07;;;;;;;9.30;4.43;;;;;;;;;;5086820;28;20135;-74
2022/06/14 01:42:56;;;;;;;8.00;4.22;;;;;;;;;;5085102;28;20115;-75
2022/06/14 01:45:22;;;;;;;10.68;5.30;;;;;;;;;;5087914;28;20044;-74
2022/06/14 01:48:07;;;;;;;9.95;4.18;;;;;;;;;;5072539;28;20040;-74
2022/06/14 01:53:21;;;;;;;9.65;3.90;;;;;;;;;;5078898;28;20052;-74
2022/06/14 01:56:09;;;;;;;5.38;3.42;;;;;;;;;;5081058;28;20036;-74
2022/06/14 01:58:35;;;;;;;6.70;4.10;;;;;;;;;;5083912;28;20122;-74
2022/06/14 02:01:01;;;;;;;9.65;4.03;;;;;;;;;;5072412;28;20036;-74
2022/06/14 02:06:34;;;;;;;8.48;3.88;;;;;;;;;;5083023;28;20040;-74
2022/06/14 02:09:24;;;;;;;7.95;3.90;;;;;;;;;;5076269;28;20070;-74
2022/06/14 02:11:50;;;;;;;5.45;3.58;;;;;;;;;;5077884;28;20065;-73
2022/06/14 02:14:37;;;;;;;9.88;4.30;;;;;;;;;;5092295;28;20036;-74
2022/06/14 02:17:09;;;;;;;6.40;3.47;;;;;;;;;;5076937;28;20101;-74
2022/06/14 02:19:39;;;;;;;9.68;3.95;;;;;;;;;;5082812;28;20035;-74
2022/06/14 02:22:18;;;;;;;13.57;4.82;;;;;;;;;;5084404;28;20063;-74
2022/06/14 02:24:47;;;;;;;8.57;4.15;;;;;;;;;;5089240;28;20044;-74
2022/06/14 02:27:13;;;;;;;8.73;4.20;;;;;;;;;;5083076;28;20103;-74
2022/06/14 02:29:45;;;;;;;9.13;3.78;;;;;;;;;;5088616;28;20103;-74
2022/06/14 02:32:14;;;;;;;6.40;3.40;;;;;;;;;;5084472;28;20087;-74
2022/06/14 02:35:00;;;;;;;10.07;4.82;;;;;;;;;;5089635;28;20044;-74
2022/06/14 02:37:42;;;;;;;10.95;4.18;;;;;;;;;;5075550;28;20166;-74
2022/06/14 02:40:21;;;;;;;10.68;4.35;;;;;;;;;;5089330;28;20036;-73
2022/06/14 02:42:53;;;;;;;6.43;3.70;;;;;;;;;;5082802;28;20042;-74
2022/06/14 02:45:22;;;;;;;9.73;4.90;;;;;;;;;;5081033;28;20032;-74
2022/06/14 02:47:51;;;;;;;9.90;3.80;;;;;;;;;;5084369;28;20106;-73
2022/06/14 02:50:21;;;;;;;9.27;3.97;;;;;;;;;;5088253;28;20052;-74
2022/06/14 02:52:53;;;;;;;7.40;3.35;;;;;;;;;;5085262;28;20067;-74
2022/06/14 02:55:25;;;;;;;10.38;4.10;;;;;;;;;;5074927;28;20398;-74
2022/06/14 02:58:10;;;;;;;5.57;3.33;;;;;;;;;;5080825;28;20028;-72
2022/06/14 03:00:42;;;;;;;7.20;3.22;;;;;;;;;;5082958;28;20048;-74
2022/06/14 03:03:29;;;;;;;8.25;3.72;;;;;;;;;;5082152;28;20117;-74
2022/06/14 03:06:11;;;;;;;8.45;3.15;;;;;;;;;;5077655;28;20067;-74
2022/06/14 03:08:37;;;;;;;5.75;3.17;;;;;;;;;;5073707;28;20037;-74
2022/06/14 03:11:06;;;;;;;7.18;3.42;;;;;;;;;;5081742;28;20449;-74
2022/06/14 03:13:37;;;;;;;8.77;3.00;;;;;;;;;;5085828;28;20039;-74
2022/06/14 03:16:03;;;;;;;8.07;3.75;;;;;;;;;;5078271;28;20072;-73
2022/06/14 03:18:38;;;;;;;5.68;3.30;;;;;;;;;;5078419;28;20471;-73
2022/06/14 03:21:11;;;;;;;5.55;3.45;;;;;;;;;;5079935;28;20072;-74
2022/06/14 03:23:37;;;;;;;5.38;3.45;;;;;;;;;;5083011;28;20459;-73
2022/06/14 03:26:22;;;;;;;7.45;3.00;;;;;;;;;;5085474;28;20043;-72
2022/06/14 03:29:24;;;;;;;7.18;3.40;;;;;;;;;;5085544;28;20119;-74
2022/06/14 03:31:58;;;;;;;7.80;3.70;;;;;;;;;;5047893;28;20051;-73
2022/06/14 03:34:38;;;;;;;9.68;4.18;;;;;;;;;;5079201;28;20043;-73
2022/06/14 03:37:05;;;;;;;9.70;4.40;;;;;;;;;;5086805;28;20032;-74
2022/06/14 03:39:36;;;;;;;6.32;3.55;;;;;;;;;;5088127;28;20040;-74
2022/06/14 03:42:04;;;;;;;9.82;4.80;;;;;;;;;;5080970;28;20383;-74
2022/06/14 03:44:30;;;;;;;9.85;3.63;;;;;;;;;;5078406;28;20081;-74
2022/06/14 03:47:18;;;;;;;9.60;3.75;;;;;;;;;;5089214;28;20271;-74
2022/06/14 03:49:47;;;;;;;9.35;4.63;;;;;;;;;;5072346;28;20044;-74
2022/06/14 03:52:13;;;;;;;9.60;3.25;;;;;;;;;;5075782;28;20115;-74
2022/06/14 03:54:39;;;;;;;8.85;3.47;;;;;;;;;;5087300;28;20127;-74
2022/06/14 03:57:06;;;;;;;7.90;3.50;;;;;;;;;;5071864;28;20068;-74
2022/06/14 03:59:35;;;;;;;6.78;3.75;;;;;;;;;;5085870;28;20051;-75
2022/06/14 04:02:14;;;;;;;15.40;4.00;;;;;;;;;;5085425;28;20040;-74
2022/06/14 04:04:59;;;;;;;7.05;3.70;;;;;;;;;;5079213;28;20043;-74
2022/06/14 04:07:40;;;;;;;6.20;4.25;;;;;;;;;;5080804;28;20067;-74
2022/06/14 04:10:06;;;;;;;8.32;3.60;;;;;;;;;;5083765;28;20075;-74
2022/06/14 04:12:33;;;;;;;6.18;3.08;;;;;;;;;;5089216;28;20255;-74
2022/06/14 04:15:16;;;;;;;5.63;3.10;;;;;;;;;;5087023;28;20062;-74
2022/06/14 04:17:42;;;;;;;7.05;3.95;;;;;;;;;;5082426;28;20036;-74
2022/06/14 04:20:27;;;;;;;7.80;4.05;;;;;;;;;;5082389;28;20032;-74
2022/06/14 04:23:12;;;;;;;7.18;3.47;;;;;;;;;;5074892;28;20040;-74
2022/06/14 04:25:44;;;;;;;12.48;3.97;;;;;;;;;;5077160;28;20135;-74
2022/06/14 04:28:30;;;;;;;5.68;3.58;;;;;;;;;;5086365;28;20440;-74
2022/06/14 04:31:00;;;;;;;5.85;3.60;;;;;;;;;;5077578;28;20526;-74
2022/06/14 04:33:32;;;;;;;11.35;3.50;;;;;;;;;;5074671;28;20046;-74
2022/06/14 04:36:14;;;;;;;7.63;4.30;;;;;;;;;;5089093;28;20040;-74
2022/06/14 04:38:48;;;;;;;7.60;3.45;;;;;;;;;;5074830;28;20063;-73
2022/06/14 04:41:26;;;;;;;11.20;4.68;;;;;;;;;;5080343;28;20036;-74
2022/06/14 04:44:11;;;;;;;9.18;3.58;;;;;;;;;;5074257;28;20429;-74
2022/06/14 04:46:58;;;;;;;7.95;4.13;;;;;;;;;;5081443;28;20071;-72
2022/06/14 04:49:28;;;;;;;6.85;3.15;;;;;;;;;;5081605;28;20370;-74
2022/06/14 04:51:59;;;;;;;10.27;4.35;;;;;;;;;;5073692;28;20091;-74
2022/06/14 04:54:44;;;;;;;8.88;4.00;;;;;;;;;;5083720;28;20028;-74
2022/06/14 04:57:10;;;;;;;9.85;4.38;;;;;;;;;;5082064;28;20123;-73
2022/06/14 04:59:48;;;;;;;8.05;4.97;;;;;;;;;;5079996;28;20031;-74
2022/06/14 05:02:22;;;;;;;7.85;4.03;;;;;;;;;;5080615;28;20036;-74
2022/06/14 05:04:52;;;;;;;10.32;4.68;;;;;;;;;;5078008;28;20036;-74
2022/06/14 05:07:23;;;;;;;7.53;3.78;;;;;;;;;;5074318;28;20256;-73
2022/06/14 05:10:10;;;;;;;14.52;4.35;;;;;;;;;;5076653;28;20081;-74
2022/06/14 05:12:50;;;;;;;7.25;4.18;;;;;;;;;;5071983;28;20053;-73
2022/06/14 05:15:17;;;;;;;5.82;3.55;;;;;;;;;;5079091;28;20051;-74
2022/06/14 05:17:49;;;;;;;9.45;4.90;;;;;;;;;;5085800;28;20048;-74
2022/06/14 05:20:20;;;;;;;9.57;5.28;;;;;;;;;;5069365;28;20455;-74
2022/06/14 05:22:46;;;;;;;8.48;4.20;;;;;;;;;;5079831;28;20036;-74
2022/06/14 05:25:14;;;;;;;7.97;4.65;;;;;;;;;;5080548;28;20047;-74
2022/06/14 05:27:40;;;;;;;7.45;4.30;;;;;;;;;;5079097;28;20040;-74
2022/06/14 05:30:06;;;;;;;8.57;4.88;;;;;;;;;;5084404;28;20044;-74
2022/06/14 05:32:40;;;;;;;12.15;4.97;;;;;;;;;;5069952;28;20040;-74
2022/06/14 05:35:12;;;;;;;8.07;4.43;;;;;;;;;;5084502;28;20036;-74
2022/06/14 05:37:44;;;;;;;7.72;3.95;;;;;;;;;;5079389;28;20040;-74
2022/06/14 05:40:11;;;;;;;16.53;5.20;;;;;;;;;;5083476;28;20047;-74
2022/06/14 05:42:41;;;;;;;10.20;4.55;;;;;;;;;;5087614;28;20465;-74
2022/06/14 05:45:07;;;;;;;11.65;5.38;;;;;;;;;;5087307;28;20039;-74
2022/06/14 05:47:38;;;;;;;9.27;5.30;;;;;;;;;;5065508;28;20401;-74
2022/06/14 05:50:12;;;;;;;9.02;4.65;;;;;;;;;;5072474;28;20044;-74
2022/06/14 05:53:02;;;;;;;6.90;3.13;;;;;;;;;;5081971;28;20054;-74
2022/06/14 05:55:38;;;;;;;7.97;4.72;;;;;;;;;;5076684;28;20478;-74
2022/06/14 05:58:09;;;;;;;10.95;4.78;;;;;;;;;;5080363;28;20037;-72
2022/06/14 06:00:43;;;;;;;11.23;4.47;;;;;;;;;;5069273;28;20044;-72
2022/06/14 06:03:12;;;;;;;5.65;4.43;;;;;;;;;;5073165;28;20036;-75
2022/06/14 06:05:41;;;;;;;9.60;4.82;;;;;;;;;;5080300;28;20489;-75
2022/06/14 06:08:13;;;;;;;11.88;4.70;;;;;;;;;;5076142;28;20172;-74
2022/06/14 06:10:42;;;;;;;9.63;4.32;;;;;;;;;;5077692;28;20039;-75
2022/06/14 06:13:11;;;;;;;8.90;4.28;;;;;;;;;;5081306;28;20032;-75
2022/06/14 06:15:57;;;;;;;7.60;4.05;;;;;;;;;;5076053;28;20037;-75
2022/06/14 06:18:26;;;;;;;8.80;4.10;;;;;;;;;;5075896;28;20043;-75
2022/06/14 06:20:52;;;;;;;5.60;4.40;;;;;;;;;;5076364;28;20117;-74
2022/06/14 06:23:22;;;;;;;9.68;3.75;;;;;;;;;;5086027;28;20036;-75
2022/06/14 06:25:52;;;;;;;5.00;3.30;;;;;;;;;;5057581;28;20514;-74
2022/06/14 06:28:24;;;;;;;6.57;4.00;;;;;;;;;;5083189;28;20036;-75
2022/06/14 06:30:54;;;;;;;14.47;5.23;;;;;;;;;;5079540;28;20037;-74
2022/06/14 06:33:22;;;;;;;7.90;3.42;;;;;;;;;;5079679;28;20296;-75
2022/06/14 06:35:57;;;;;;;4.68;3.05;;;;;;;;;;5075909;28;20411;-75
2022/06/14 06:38:29;;;;;;;4.93;3.22;;;;;;;;;;5076095;28;20024;-75
2022/06/14 06:43:58;;;;;;;;;;;;;;;;;;5088199;28;20432;-75
2022/06/14 06:46:26;;;;;;;5.22;2.30;;;;;;;;;;5077235;28;20051;-75
2022/06/14 06:48:54;;;;;;;7.03;2.40;;;;;;;;;;5087002;28;20036;-75
2022/06/14 06:51:21;;;;;;;4.53;2.20;;;;;;;;;;5074986;28;20045;-75
2022/06/14 06:53:52;;;;;;;3.50;2.05;;;;;;;;;;5086970;28;20174;-75
2022/06/14 06:56:24;;;;;;;6.28;2.05;;;;;;;;;;5074735;28;20105;-75
2022/06/14 06:58:50;;;;;;;6.13;1.92;;;;;;;;;;5080137;28;20411;-75
2022/06/14 07:01:21;;;;;;;6.18;1.75;;;;;;;;;;5078735;28;20048;-75
2022/06/14 07:03:49;;;;;;;2.67;1.77;;;;;;;;;;5086833;28;20131;-75
2022/06/14 07:06:19;;;;;;;2.55;1.92;;;;;;;;;;5090741;28;20035;-75
2022/06/14 07:08:55;;;;;;;7.07;2.20;;;;;;;;;;5089489;28;20047;-75
2022/06/14 07:11:23;;;;;;;2.90;1.88;;;;;;;;;;5084415;28;20481;-75
2022/06/14 07:14:12;;;;;;;5.20;2.63;;;;;;;;;;5081256;28;20035;-75
2022/06/14 07:16:44;;;;;;;4.20;2.10;;;;;;;;;;5085473;28;20461;-75
2022/06/14 07:19:13;;;;;;;3.50;1.80;;;;;;;;;;5084492;28;20159;-76
2022/06/14 07:21:42;;;;;;;7.55;2.70;;;;;;;;;;5074197;28;20051;-75
2022/06/14 07:24:29;;;;;;;5.40;2.05;;;;;;;;;;5086836;28;20425;-75
2022/06/14 07:27:06;;;;;;;4.85;1.83;;;;;;;;;;5078502;28;20043;-77
2022/06/14 07:29:46;;;;;;;2.97;2.05;;;;;;;;;;5086625;28;20290;-76
2022/06/14 07:32:27;;;;;;;6.13;2.67;;;;;;;;;;5077412;28;20035;-76
2022/06/14 07:34:54;;;;;;;5.35;2.50;;;;;;;;;;5088899;28;20095;-76
2022/06/14 07:37:26;;;;;;;6.45;2.30;;;;;;;;;;5087776;28;20036;-76
2022/06/14 07:39:55;;;;;;;4.93;2.72;;;;;;;;;;5080032;28;20054;-75
2022/06/14 07:42:32;;;;;;;3.72;2.22;;;;;;;;;;5086266;28;20058;-76
2022/06/14 07:45:07;;;;;;;6.00;2.55;;;;;;;;;;5089229;28;20526;-76
2022/06/14 07:47:54;;;;;;;6.78;2.53;;;;;;;;;;5084825;28;20510;-76
2022/06/14 07:50:28;;;;;;;4.07;1.80;;;;;;;;;;5072209;28;20065;-76
2022/06/14 07:52:58;;;;;;;4.60;1.83;;;;;;;;;;5084748;28;20097;-76
2022/06/14 07:55:28;;;;;;;5.45;1.73;;;;;;;;;;5086085;28;20083;-75
2022/06/14 07:58:00;;;;;;;5.25;2.42;;;;;;;;;;5083145;28;20079;-75
2022/06/14 08:03:19;;;;;;;2.63;1.80;;;;;;;;;;5074960;28;20044;-76
2022/06/14 08:05:47;;;;;;;10.57;2.85;;;;;;;;;;5080680;28;20043;-76
2022/06/14 08:08:16;;;;;;;3.70;1.95;;;;;;;;;;5080582;28;20059;-76
2022/06/14 08:10:46;;;;;;;5.40;2.45;;;;;;;;;;5082438;28;20040;-76
2022/06/14 08:13:17;;;;;;;4.95;2.65;;;;;;;;;;5079498;28;20040;-77
2022/06/14 08:15:46;;;;;;;3.80;1.60;;;;;;;;;;5088092;28;20542;-76
2022/06/14 08:18:17;;;;;;;4.47;1.80;;;;;;;;;;5086110;28;20035;-76
2022/06/14 08:20:47;;;;;;;4.05;1.73;;;;;;;;;;5082397;28;20397;-77
2022/06/14 08:23:34;;;;;;;4.72;2.08;;;;;;;;;;5082735;28;20125;-77
2022/06/14 08:26:13;;;;;;;4.75;1.90;;;;;;;;;;5070441;28;20052;-76
2022/06/14 08:28:52;;;;;;;2.97;1.83;;;;;;;;;;5084953;28;20032;-76
2022/06/14 08:31:22;;;;;;;2.75;1.67;;;;;;;;;;5075867;28;20562;-76
2022/06/14 08:33:53;;;;;;;3.15;1.67;;;;;;;;;;5079422;28;20032;-75
2022/06/14 08:36:23;;;;;;;6.15;2.38;;;;;;;;;;5081569;28;20032;-76
2022/06/14 08:38:49;;;;;;;7.18;2.15;;;;;;;;;;5087851;28;20036;-76
2022/06/14 08:41:21;;;;;;;7.63;2.70;;;;;;;;;;5081833;28;20032;-77
2022/06/14 08:43:50;;;;;;;7.85;2.53;;;;;;;;;;5082772;28;20037;-77
2022/06/14 08:46:18;;;;;;;3.42;1.85;;;;;;;;;;5078389;28;20131;-77
2022/06/14 08:49:03;;;;;;;3.38;1.45;;;;;;;;;;5076052;28;20064;-77
2022/06/14 08:51:29;;;;;;;5.10;1.52;;;;;;;;;;5084230;28;20056;-77
2022/06/14 08:54:21;;;;;;;7.30;2.10;;;;;;;;;;5084976;28;20383;-76
2022/06/14 08:57:05;;;;;;;3.38;2.03;;;;;;;;;;5080753;28;20527;-76
2022/06/14 08:59:37;;;;;;;3.42;2.00;;;;;;;;;;5087383;28;20040;-77
2022/06/14 09:02:21;;;;;;;3.17;1.80;;;;;;;;;;5083504;28;20101;-77
2022/06/14 09:04:59;;;;;;;4.60;2.00;;;;;;;;;;5078743;28;20032;-77
2022/06/14 09:07:25;;;;;;;8.20;3.25;;;;;;;;;;5069569;28;20048;-78
2022/06/14 09:10:03;;;;;;;6.93;2.20;;;;;;;;;;5077586;28;20046;-77
2022/06/14 09:12:48;;;;;;;3.10;1.50;;;;;;;;;;5085429;28;20032;-77
2022/06/14 09:15:23;;;;;;;3.65;1.73;;;;;;;;;;5079103;28;20086;-77
2022/06/14 09:17:49;;;;;;;4.43;1.73;;;;;;;;;;5085117;28;20037;-76
2022/06/14 09:20:21;;;;;;;7.15;2.90;;;;;;;;;;5089566;28;20043;-77
2022/06/14 09:23:05;;;;;;;4.13;2.15;;;;;;;;;;5086479;28;20046;-77
2022/06/14 09:25:37;;;;;;;9.73;2.75;;;;;;;;;;5079375;28;20100;-76
2022/06/14 09:28:06;;;;;;;5.63;2.28;;;;;;;;;;5082348;28;20059;-75
2022/06/14 09:30:51;;;;;;;4.70;1.90;;;;;;;;;;5086310;28;20040;-76
2022/06/14 09:33:20;;;;;;;3.72;2.58;;;;;;;;;;5081782;28;20107;-76
2022/06/14 09:35:58;;;;;;;5.60;2.20;;;;;;;;;;5083485;28;20518;-77
2022/06/14 09:38:42;;;;;;;3.50;2.00;;;;;;;;;;5085925;28;20107;-77
2022/06/14 09:41:11;;;;;;;4.82;2.67;;;;;;;;;;5086193;28;20113;-77
2022/06/14 09:43:56;;;;;;;4.05;2.00;;;;;;;;;;5087515;28;20075;-77
2022/06/14 09:46:40;;;;;;;4.97;1.98;;;;;;;;;;5083526;28;20056;-78
2022/06/14 09:49:06;;;;;;;2.88;2.42;;;;;;;;;;5073008;28;20071;-77
2022/06/14 09:51:33;;;;;;;3.40;1.63;;;;;;;;;;5083650;28;20049;-77
2022/06/14 09:54:16;;;;;;;3.22;1.70;;;;;;;;;;5068351;28;20036;-78
2022/06/14 09:56:51;;;;;;;4.60;1.70;;;;;;;;;;5083374;28;20050;-77
2022/06/14 09:59:24;;;;;;;3.72;1.98;;;;;;;;;;5086970;28;20067;-77
2022/06/14 10:01:50;;;;;;;5.00;1.98;;;;;;;;;;5081428;28;20067;-77
2022/06/14 10:04:26;;;;;;;4.75;2.30;;;;;;;;;;5074193;28;20037;-76
2022/06/14 10:06:52;;;;;;;4.50;2.72;;;;;;;;;;5085087;28;20063;-78
2022/06/14 10:09:30;;;;;;;2.95;1.85;;;;;;;;;;5079562;28;20052;-77
2022/06/14 10:11:56;;;;;;;8.98;3.05;;;;;;;;;;5066096;28;20047;-77
2022/06/14 10:14:44;;;;;;;4.60;2.40;;;;;;;;;;5087641;28;20038;-77
2022/06/14 10:17:16;;;;;;;4.10;2.10;;;;;;;;;;5077251;28;20036;-77
2022/06/14 10:20:02;;;;;;;3.15;2.10;;;;;;;;;;5080020;28;20044;-77
2022/06/14 10:22:47;;;;;;;5.35;2.65;;;;;;;;;;5085619;28;20525;-77
2022/06/14 10:25:25;;;;;;;5.60;1.85;;;;;;;;;;5073339;28;20041;-77
2022/06/14 10:28:12;;;;;;;7.38;2.10;;;;;;;;;;5075740;28;20036;-78
2022/06/14 10:30:57;;;;;;;5.57;2.97;;;;;;;;;;5083520;28;20409;-77
2022/06/14 10:33:43;;;;;;;3.22;1.88;;;;;;;;;;5083184;28;20044;-77
2022/06/14 10:36:17;;;;;;;7.35;2.13;;;;;;;;;;5088235;28;20306;-77
2022/06/14 10:38:54;;;;;;;3.88;1.67;;;;;;;;;;5082040;28;20048;-78
2022/06/14 10:41:24;;;;;;;5.38;2.97;;;;;;;;;;5081259;28;20036;-77
2022/06/14 10:43:54;;;;;;;5.72;1.80;;;;;;;;;;5078499;28;20040;-77
2022/06/14 10:46:24;;;;;;;7.13;2.63;;;;;;;;;;5092157;28;20490;-77
2022/06/14 10:49:05;;;;;;;3.50;2.00;;;;;;;;;;5084142;28;20040;-77
2022/06/14 10:51:49;;;;;;;2.33;1.60;;;;;;;;;;5071125;28;20048;-78
2022/06/14 10:54:33;;;;;;;3.35;1.40;;;;;;;;;;5089851;28;20482;-77
2022/06/14 10:57:15;;;;;;;3.28;1.80;;;;;;;;;;5088087;28;20143;-76
2022/06/14 10:59:42;;;;;;;4.20;2.28;;;;;;;;;;5087689;28;20062;-77
2022/06/14 11:02:11;;;;;;;2.13;1.60;;;;;;;;;;5085256;28;20361;-76
2022/06/14 11:04:43;;;;;;;3.40;2.42;;;;;;;;;;5095086;28;20043;-77
2022/06/14 11:07:32;;;;;;;3.85;1.90;;;;;;;;;;5091376;28;20048;-77
2022/06/14 11:10:19;;;;;;;2.10;1.23;;;;;;;;;;5053676;28;20063;-77
2022/06/14 11:12:48;;;;;;;6.32;1.80;;;;;;;;;;5084242;28;20047;-77
2022/06/14 11:15:17;;;;;;;6.38;2.47;;;;;;;;;;5075232;28;20046;-77
2022/06/14 11:18:02;;;;;;;5.78;2.70;;;;;;;;;;5075450;28;20048;-78
2022/06/14 11:20:34;;;;;;;7.88;2.45;;;;;;;;;;5064172;28;20500;-77
2022/06/14 11:23:07;;;;;;;4.18;2.45;;;;;;;;;;5089432;28;20032;-78
2022/06/14 11:25:34;;;;;;;5.63;2.38;;;;;;;;;;5072698;28;20718;-77
2022/06/14 11:28:09;;;;;;;8.40;2.97;;;;;;;;;;5086594;28;20048;-76
2022/06/14 11:30:38;;;;;;;5.32;2.90;;;;;;;;;;5081684;28;20036;-76
2022/06/14 11:33:04;;;;;;;4.38;2.55;;;;;;;;;;5074743;28;20082;-75
2022/06/14 11:35:30;;;;;;;4.57;2.03;;;;;;;;;;5075579;28;20036;-76
2022/06/14 11:38:26;;;;;;;6.28;2.70;;;;;;;;;;5083241;28;20043;-78
2022/06/14 11:40:57;;;;;;;7.13;2.40;;;;;;;;;;5035171;28;20059;-78
2022/06/14 11:43:40;;;;;;;3.60;2.38;;;;;;;;;;5085646;28;20072;-78
2022/06/14 11:46:16;;;;;;;4.53;2.50;;;;;;;;;;5074634;28;20124;-77
2022/06/14 11:48:48;;;;;;;6.25;3.17;;;;;;;;;;5071993;28;20044;-78
2022/06/14 11:51:15;;;;;;;;;;;;;;;;;;5088176;28;20076;-78
2022/06/14 11:53:52;;;;;;;4.55;2.45;;;;;;;;;;5090032;28;20340;-78
2022/06/14 11:56:25;;;;;;;3.85;2.83;;;;;;;;;;5078294;28;20036;-78
2022/06/14 11:59:05;;;;;;;5.85;3.30;;;;;;;;;;5084723;28;20114;-77
2022/06/14 12:01:50;;;;;;;9.23;2.85;;;;;;;;;;5090849;28;20036;-78
2022/06/14 12:04:24;;;;;;;8.27;2.60;;;;;;;;;;5086972;28;20035;-78
2022/06/14 12:07:02;;;;;;;5.40;2.58;;;;;;;;;;5087802;28;20039;-77
2022/06/14 12:09:49;;;;;;;5.13;2.95;;;;;;;;;;5081924;28;20047;-78
2022/06/14 12:12:19;;;;;;;6.32;3.05;;;;;;;;;;5079984;28;20398;-77
2022/06/14 12:14:57;;;;;;;6.43;2.80;;;;;;;;;;5085221;28;20079;-77
2022/06/14 12:17:23;;;;;;;5.65;2.72;;;;;;;;;;5080481;28;20036;-78
2022/06/14 12:19:53;;;;;;;7.57;2.97;;;;;;;;;;5080297;28;20547;-77
2022/06/14 12:22:42;;;;;;;4.90;2.72;;;;;;;;;;5083822;28;20578;-77
2022/06/14 12:28:23;;;;;;;5.30;2.40;;;;;;;;;;5072474;28;20714;-77
2022/06/14 12:30:52;;;;;;;5.57;2.60;;;;;;;;;;5073721;28;20041;-78
2022/06/14 12:33:37;;;;;;;5.10;2.30;;;;;;;;;;5079649;28;20493;-78
2022/06/14 12:36:20;;;;;;;6.50;3.03;;;;;;;;;;5078959;28;20071;-78
2022/06/14 12:38:48;;;;;;;4.72;2.55;;;;;;;;;;5089860;28;20177;-77
2022/06/14 12:41:17;;;;;;;5.28;3.50;;;;;;;;;;5084904;28;20072;-78
2022/06/14 12:43:49;;;;;;;6.75;2.78;;;;;;;;;;5088727;28;20132;-78
2022/06/14 12:46:22;;;;;;;4.15;2.92;;;;;;;;;;5081942;28;20494;-78
2022/06/14 12:48:52;;;;;;;5.85;3.58;;;;;;;;;;5075064;28;20114;-78
2022/06/14 12:51:26;;;;;;;4.43;2.30;;;;;;;;;;5086758;28;20102;-78
2022/06/14 12:53:52;;;;;;;4.63;3.00;;;;;;;;;;5087643;28;20448;-78
2022/06/14 12:56:37;;;;;;;5.95;2.40;;;;;;;;;;5086386;28;20036;-78
2022/06/14 12:59:15;;;;;;;4.90;2.20;;;;;;;;;;5087324;28;20055;-78
2022/06/14 13:01:48;;;;;;;9.70;3.42;;;;;;;;;;5079671;28;20530;-78
2022/06/14 13:04:23;;;;;;;7.57;3.03;;;;;;;;;;5086304;28;20047;-78
2022/06/14 13:07:01;;;;;;;6.78;2.40;;;;;;;;;;5086162;28;20046;-77
2022/06/14 13:09:46;;;;;;;3.28;1.85;;;;;;;;;;5087272;28;20512;-78
2022/06/14 13:12:15;;;;;;;6.68;2.25;;;;;;;;;;5079318;28;20570;-78
2022/06/14 13:14:59;;;;;;;4.55;2.47;;;;;;;;;;5081793;28;20036;-78
2022/06/14 13:17:28;;;;;;;5.28;1.83;;;;;;;;;;5081779;28;20123;-78
2022/06/14 13:20:00;;;;;;;4.55;2.20;;;;;;;;;;5087278;28;20061;-78
2022/06/14 13:22:44;;;;;;;5.07;2.35;;;;;;;;;;5082841;28;20274;-77
2022/06/14 13:25:29;;;;;;;4.57;2.33;;;;;;;;;;5084640;28;20115;-77
2022/06/14 13:28:07;;;;;;;5.00;2.42;;;;;;;;;;5080599;28;20036;-77
2022/06/14 13:30:33;;;;;;;5.20;2.67;;;;;;;;;;5078842;28;20044;-75
2022/06/14 13:33:26;;;;;;;7.47;4.40;;;;;;;;;;5082949;28;20486;-77
2022/06/14 13:36:12;;;;;;;7.55;4.03;;;;;;;;;;5075775;28;20039;-77
2022/06/14 13:38:46;;;;;;;7.95;4.65;;;;;;;;;;5086156;28;20048;-78
2022/06/14 13:41:18;;;;;;;4.75;3.35;;;;;;;;;;5087429;28;20068;-77
2022/06/14 13:43:50;;;;;;;11.48;4.80;;;;;;;;;;5082728;28;20041;-77
2022/06/14 13:46:21;;;;;;;5.15;3.78;;;;;;;;;;5074996;28;20043;-77
2022/06/14 13:48:47;;;;;;;6.57;3.67;;;;;;;;;;5069146;28;20044;-77
2022/06/14 13:51:26;;;;;;;6.20;3.50;;;;;;;;;;5068226;28;20048;-77
2022/06/14 13:54:04;;;;;;;7.38;3.88;;;;;;;;;;5080808;28;20045;-77
2022/06/14 13:56:36;;;;;;;5.78;3.30;;;;;;;;;;5087460;28;20072;-77
2022/06/14 13:59:14;;;;;;;8.52;3.63;;;;;;;;;;5088653;28;20432;-76
2022/06/14 14:01:44;;;;;;;5.78;3.25;;;;;;;;;;5079549;28;20047;-77
2022/06/14 14:04:33;;;;;;;10.90;4.90;;;;;;;;;;5060610;28;20445;-77
2022/06/14 14:07:10;;;;;;;8.82;3.38;;;;;;;;;;5081749;28;20044;-77
2022/06/14 14:09:39;;;;;;;7.55;3.03;;;;;;;;;;5086387;28;20044;-77
2022/06/14 14:12:05;;;;;;;5.22;3.03;;;;;;;;;;5083163;28;20036;-77
2022/06/14 14:14:37;;;;;;;7.65;3.22;;;;;;;;;;5087303;28;20043;-77
2022/06/14 14:17:06;;;;;;;6.82;3.22;;;;;;;;;;5088639;28;20056;-77
2022/06/14 14:19:51;;;;;;;7.35;4.25;;;;;;;;;;5085715;28;20044;-77
2022/06/14 14:22:27;;;;;;;5.95;4.13;;;;;;;;;;5083169;28;20093;-77
2022/06/14 14:25:00;;;;;;;7.22;3.05;;;;;;;;;;5083445;28;20498;-77
2022/06/14 14:27:26;;;;;;;5.00;3.20;;;;;;;;;;5062220;28;20044;-76
2022/06/14 14:30:11;;;;;;;6.63;3.17;;;;;;;;;;5080260;28;20058;-76
2022/06/14 14:32:47;;;;;;;6.63;3.25;;;;;;;;;;5078321;28;20043;-76
2022/06/14 14:35:19;;;;;;;13.63;4.10;;;;;;;;;;5080423;28;20033;-76
2022/06/14 14:37:51;;;;;;;5.45;3.03;;;;;;;;;;5082345;28;20172;-76
2022/06/14 14:40:17;;;;;;;4.77;2.60;;;;;;;;;;5089886;28;20048;-76
2022/06/14 14:43:02;;;;;;;4.85;3.40;;;;;;;;;;5080816;28;20040;-77
2022/06/14 14:45:37;;;;;;;8.50;3.28;;;;;;;;;;5088995;28;20119;-76
2022/06/14 14:48:11;;;;;;;7.13;3.45;;;;;;;;;;5088718;28;20044;-76
2022/06/14 14:50:56;;;;;;;6.32;3.33;;;;;;;;;;5091493;28;20052;-77
2022/06/14 14:53:28;;;;;;;4.43;2.83;;;;;;;;;;5087533;28;20039;-75
2022/06/14 14:55:54;;;;;;;6.30;3.95;;;;;;;;;;5087350;28;20085;-76
2022/06/14 14:58:29;;;;;;;8.93;3.08;;;;;;;;;;5091709;28;20107;-75
2022/06/14 15:07:20;;;;;;;5.18;2.70;;;;;;;;;;5081913;28;20511;-76
2022/06/14 15:09:51;;;;;;;8.02;3.03;;;;;;;;;;5089132;28;20254;-76
2022/06/14 15:12:19;;;;;;;4.85;2.85;;;;;;;;;;5083461;28;20047;-77
2022/06/14 15:15:04;;;;;;;9.68;3.35;;;;;;;;;;5087899;28;20416;-76
2022/06/14 15:19:54;;;;;;;7.25;3.38;;;;;;;;;;5087514;28;20093;-76
2022/06/14 15:20:30;;;;;;;6.18;4.03;;;;;;;;;;5091449;28;20055;-76
2022/06/14 15:22:56;;;;;;;9.90;4.30;;;;;;;;;;5087927;28;20044;-77
2022/06/14 15:25:27;;;;;;;6.72;3.03;;;;;;;;;;5084181;28;20059;-77
2022/06/14 15:27:59;;;;;;;6.28;3.60;;;;;;;;;;5077402;28;20134;-77
2022/06/14 15:31:00;;;;;;;5.82;3.42;;;;;;;;;;5081449;28;20044;-77
2022/06/14 15:33:30;;;;;;;7.05;3.40;;;;;;;;;;5027441;28;20185;-76
2022/06/14 15:35:58;;;;;;;6.05;3.20;;;;;;;;;;5072341;28;20048;-76
2022/06/14 15:38:26;;;;;;;6.68;2.97;;;;;;;;;;5080203;28;20037;-77
2022/06/14 15:41:00;;;;;;;4.38;2.60;;;;;;;;;;5072370;28;20040;-77
2022/06/14 15:43:29;;;;;;;8.88;3.63;;;;;;;;;;5084268;28;20043;-77
2022/06/14 15:45:57;;;;;;;5.13;3.08;;;;;;;;;;5086660;28;20516;-77